Daniel Hall

Olheiro-Chefe - Manchester City
3 Dez 2028
Domingo
Processo

Personalidade

Adaptabilidade (15) Ambição (18) Controvérsia (4) Lealdade (5) Pressão (7) Profissionalismo (14) Espírito Esportivo (4) Temperamento (7)

Perfil

Estilo de Treinamento Democrático
Licença Nacional B
Determinação 9
Gestão de Pessoas 10
Motivação 17
Disciplina 15
Satisfação no Trabalho
100%
Fadiga
0%
Função Olheiro-Chefe
Salário 55.8K p/s
Contrato 14.03.2030

Desempenho

Comportamento Bom
Eficácia do Treinamento
60%
Desenvolvimento do Jogador
60%
Prevenção de Lesões
35%
Implementação Tática
45%

Eventos Recentes

Avaliou um jogador agora
Participou de uma reunião de recrutamento agora
Participou de uma reunião de recrutamento agora
Recomendou um alvo de transferência agora
Recomendou um alvo de transferência agora
Recomendou um alvo de transferência agora
Avaliou um jogador agora
Avaliou um jogador agora

Monitorando agora

101
Jogador Clube Status Habilidade Confiança Observado Última observação Último voto
Wesley Fofana Chelsea Ativo 173 / 170 40% 80 02.12.2028 -
William Saliba Arsenal Ativo 182 / 181 40% 1 02.12.2028 -
Sandro Tonali Tottenham Ativo 177 / 174 40% 1 02.12.2028 -
Gabriel Arsenal Ativo 176 / 173 40% 82 29.11.2028 -
Julian Eyestone Preston Ativo 151 / 154 42% 1 / 1m 25.10.2028 -
Alexei Rojas Fedorushchenko Barrow AFC Ativo 137 / 140 42% 1 / 1m 20.09.2028 -
Grant Smith Bromley Ativo 118 / 118 42% 1 / 1m 20.09.2028 -
Pascal Struijk Brighton Relatório pronto 148 / 148 95% 1 28.08.2028 -
Jeremie Frimpong Liverpool Ativo 170 / 166 40% 22 09.08.2028 -
Martín Zubimendi Arsenal Ativo 169 / 167 40% 58 10.07.2028 -
Mason Greenwood Lazio Ativo 166 / 161 40% 1 10.07.2028 -
Manu Koné AS Roma Rejeitado 171 / 171 40% 65 03.07.2028 -
Alessandro Bastoni Inter Rejeitado 171 / 168 67% 40 03.07.2028 -
Gianluigi Donnarumma AS Roma Negociando 172 / 173 40% 1 12.06.2028 -
Anatolii Trubin Arsenal Ativo 164 / 160 40% 1 12.06.2028 -
Filip Jörgensen Chelsea Ativo 163 / 163 40% 1 12.06.2028 -
Dominik Szoboszlai Liverpool Rejeitado 171 / 173 40% 60 31.05.2028 -
Reece James Chelsea Rejeitado 176 / 177 40% 39 31.05.2028 -
Mile Svilar AS Roma Ativo 167 / 166 40% 2 31.05.2028 -
Joseph Leclercq Tottenham Ativo 164 / 160 40% 1 31.05.2028 -
Bradley Barcola Liverpool Ativo 169 / 166 40% 17 30.05.2028 -
Hugo Ekitiké Liverpool Ativo 171 / 166 40% 18 30.05.2028 -
Gabriel Martinelli Arsenal Ativo 169 / 169 40% 23 29.05.2028 -
Bukayo Saka Arsenal Ativo 187 / 185 40% 15 25.05.2028 -
Florian Wirtz Liverpool Perdido 178 / 173 40% 10 25.05.2028 -
Alexis Mac Allister Liverpool Ativo 166 / 166 40% 46 19.05.2028 -
Dejan Kulusevski Tottenham Ativo 173 / 169 40% 4 17.05.2028 -
Christian Pulisic AC Milan Ativo 168 / 164 40% 10 14.05.2028 -
Moisés Caicedo Chelsea Rejeitado 174 / 174 40% 10 13.05.2028 -
Alexander Isak Liverpool Ativo 179 / 178 40% 3 07.05.2028 -
Sandro Tonali Tottenham Rejeitado 176 / 173 40% 35 06.05.2028 -
Martin Ødegaard Arsenal Ativo 182 / 180 40% 7 23.04.2028 -
Boubacar Kamara Aston Villa Ativo 167 / 169 40% 5 16.04.2028 -
Alex Scott Bournemouth Ativo 156 / 154 40% 2 27.01.2028 Mais informações
Carlos Baleba Norwich City Ativo 158 / 158 40% 1 27.01.2028 -
Patrick Dorgu Bristol City Ativo 150 / 152 40% 1 26.01.2028 -
Archie Gray Southampton Ativo 152 / 156 40% 2 24.01.2028 -
Marc Casadó Barcelona Ativo 152 / 152 40% 3 24.01.2028 -
Habib Diarra Sunderland Ativo 146 / 146 40% 1 24.01.2028 -
Juanlu Bournemouth Ativo 155 / 153 40% 1 22.01.2028 -
Miloš Kerkez Liverpool Ativo 166 / 163 40% 7 21.01.2028 -
Álex Jiménez Bournemouth Ativo 151 / 157 40% 2 21.01.2028 -
Damion Downs Southampton Ativo 139 / 142 42% 1 / 1m 19.01.2028 -
Adam Wharton Crystal Palace Ativo 160 / 160 40% 1 18.01.2028 -
Victor Osimhen Manchester City Ativo 159 / 160 95% 1 17.01.2028 -
Samu Aghehowa Udinese Ativo 148 / 153 69% 1 17.01.2028 -
Giorgio Scalvini Atalanta Ativo 156 / 156 40% 1 17.01.2028 -
Lucas Chevalier AC Milan Ativo 166 / 164 40% 1 10.01.2028 -
Trey Nyoni Rotherham United Ativo 137 / 144 40% 2 04.01.2028 -
Jofre Torrents Ajax Ativo 129 / 136 40% 2 04.01.2028 -
Mao Hosoya Santos Ativo 134 / 135 67% 1 01.01.2028 Aprovar
Thomas Openda Paris Saint-Germain Ativo 141 / 141 67% 1 01.01.2028 Aprovar
William Saliba Arsenal Rejeitado 179 / 177 40% 27 26.12.2027 -
Jurriën Timber Arsenal Rejeitado 167 / 164 40% 34 18.12.2027 -
Lucas Bergvall Tottenham Ativo 148 / 156 40% 6 01.11.2027 -
Skye Vink Zwolle Ativo 120 / 126 30% 1 / 1m 27.10.2027 -
Ayden Heaven Portsmouth Ativo 148 / 151 40% 1 17.10.2027 -
Kosta Nedeljković Aston Villa Ativo 133 / 138 40% 1 16.10.2027 -
Giovanni Leoni Lincoln City Ativo 137 / 146 40% 1 16.10.2027 -
Will Merry Tranmere Rovers Ativo 86 / 91 30% 1 / 1m 15.09.2027 -
Adrian Lahdo Empoli Ativo 128 / 134 30% 1 / 1m 15.09.2027 -
André-Franck Zambo Anguissa Napoli Ativo 163 / 162 40% 13 30.07.2027 -
Francisco Trincão Inter Ativo 164 / 160 40% 1 23.07.2027 -
Iliman N'Diaye Everton Ativo 163 / 159 40% 1 21.07.2027 -
Carl Rushworth Aston Villa Ativo 132 / 133 66% 1 01.06.2027 Aprovar
Ryan Gravenberch Liverpool Ativo 160 / 158 40% 8 30.05.2027 -
Mateus Mané Burnley Ativo 138 / 141 40% 3 30.05.2027 -
Eduardo Lozano Botafogo Ativo 145 / 150 40% 3 30.05.2027 -
Tino Livramento Newcastle United Ativo 155 / 158 40% 2 29.05.2027 -
Savinho Tottenham Ativo 161 / 155 40% 9 24.05.2027 -
Xavi Simons Tottenham Ativo 155 / 158 40% 5 23.05.2027 -
James Maddison Tottenham Ativo 159 / 158 40% 11 22.05.2027 -
Cody Gakpo Liverpool Ativo 160 / 156 40% 2 22.05.2027 -
Federico Chiesa Liverpool Ativo 160 / 154 40% 3 22.05.2027 -
Luka Vušković Tottenham Ativo 144 / 150 40% 2 20.05.2027 -
Curtis Jones Inter Ativo 159 / 156 40% 1 20.05.2027 -
Eliás Montiel Borussia Dortmund Ativo 127 / 133 40% 1 18.05.2027 -
Jeff Ekhator Juventus Ativo 129 / 135 40% 2 08.05.2027 -
Bence Dárdai VfL Wolfsburg Ativo 129 / 133 40% 3 15.04.2027 -
Eivind Helland AC Milan Ativo 129 / 134 40% 1 14.04.2027 -
Mathys Tel Tottenham Ativo 143 / 147 40% 3 13.04.2027 -
Caleb Yirenkyi Coventry City Ativo 136 / 138 40% 1 03.04.2027 -
Josh Acheampong Everton Ativo 138 / 141 40% 2 30.03.2027 -
Leo Castledine Middlesbrough Ativo 131 / 130 40% 2 28.03.2027 -
Sindre Walle Egeli Udinese Ativo 128 / 137 40% 1 28.03.2027 -
Marco Palestra Everton Ativo 139 / 140 40% 2 28.01.2027 -
Anthony Patterson Wrexham Ativo 129 / 131 40% 1 11.01.2027 -
Fran Vieites Walsall Ativo 121 / 119 40% 1 11.01.2027 -
Etiosa Ighodaro Kaizer Chiefs Ativo 114 / 108 40% 2 28.11.2026 -
Talles Magno New York City Ativo 130 / 131 40% 1 27.11.2026 -
Wessam Abou Ali Columbus Crew Ativo 130 / 131 40% 1 27.11.2026 -
Kévin Denkey FC Cincinnati Ativo 128 / 129 40% 2 23.11.2026 -
Martín Ojeda Orlando City Ativo 133 / 132 40% 3 17.11.2026 -
Nicolas Jackson Aston Villa Ativo 144 / 149 40% 2 17.11.2026 -
Georginio Rutter Brighton Ativo 149 / 148 40% 2 09.11.2026 -
Bénie Traoré New York City Ativo 125 / 126 40% 1 13.10.2026 -
Kelvin Yeboah Minnesota United FC Ativo 125 / 124 40% 1 03.10.2026 -
Jesus Ferreira Seattle Sounders Ativo 129 / 128 40% 1 03.10.2026 -
Dejan Joveljić Seattle Sounders Ativo 129 / 127 40% 1 30.09.2026 -
Leonardo Campana New England Revolution Ativo 128 / 126 40% 1 21.09.2026 -
Alejandro Grimaldo Atlético Madrid Ativo 161 / 158 40% 1 01.08.2026 -